sensor_id;sensor_type;location;lat;lon;timestamp;temperature;humidity
4757;DHT22;2392;52.578;13.426;2023-04-25T00:00:37;9.50;99.90
4757;DHT22;2392;52.578;13.426;2023-04-25T00:03:04;9.50;99.90
4757;DHT22;2392;52.578;13.426;2023-04-25T00:05:33;9.50;99.90
4757;DHT22;2392;52.578;13.426;2023-04-25T00:08:03;9.50;99.90
4757;DHT22;2392;52.578;13.426;2023-04-25T00:10:30;9.50;99.90
4757;DHT22;2392;52.578;13.426;2023-04-25T00:12:57;9.60;99.90
4757;DHT22;2392;52.578;13.426;2023-04-25T00:15:24;9.50;99.90
4757;DHT22;2392;52.578;13.426;2023-04-25T00:17:51;9.60;99.90
4757;DHT22;2392;52.578;13.426;2023-04-25T00:20:19;9.60;99.90
4757;DHT22;2392;52.578;13.426;2023-04-25T00:22:48;9.60;99.90
4757;DHT22;2392;52.578;13.426;2023-04-25T00:25:15;9.60;99.90
4757;DHT22;2392;52.578;13.426;2023-04-25T00:27:42;9.60;99.90
4757;DHT22;2392;52.578;13.426;2023-04-25T00:30:10;9.50;99.90
4757;DHT22;2392;52.578;13.426;2023-04-25T00:32:37;9.50;99.90
4757;DHT22;2392;52.578;13.426;2023-04-25T00:35:05;9.50;99.90
4757;DHT22;2392;52.578;13.426;2023-04-25T00:37:32;9.50;99.90
4757;DHT22;2392;52.578;13.426;2023-04-25T00:40:01;9.50;99.90
4757;DHT22;2392;52.578;13.426;2023-04-25T00:42:28;9.50;99.90
4757;DHT22;2392;52.578;13.426;2023-04-25T00:44:56;9.50;99.90
4757;DHT22;2392;52.578;13.426;2023-04-25T00:47:24;9.40;99.90
4757;DHT22;2392;52.578;13.426;2023-04-25T00:49:51;9.40;99.90
4757;DHT22;2392;52.578;13.426;2023-04-25T00:52:19;9.40;99.90
4757;DHT22;2392;52.578;13.426;2023-04-25T00:54:46;9.40;99.90
4757;DHT22;2392;52.578;13.426;2023-04-25T00:57:15;9.40;99.90
4757;DHT22;2392;52.578;13.426;2023-04-25T00:59:45;9.30;99.90
4757;DHT22;2392;52.578;13.426;2023-04-25T01:02:14;9.30;99.90
4757;DHT22;2392;52.578;13.426;2023-04-25T01:04:41;9.30;99.90
4757;DHT22;2392;52.578;13.426;2023-04-25T01:07:09;9.20;99.90
4757;DHT22;2392;52.578;13.426;2023-04-25T01:09:36;9.30;99.90
4757;DHT22;2392;52.578;13.426;2023-04-25T01:12:03;9.30;99.90
4757;DHT22;2392;52.578;13.426;2023-04-25T01:14:32;9.20;99.90
4757;DHT22;2392;52.578;13.426;2023-04-25T01:16:59;9.20;99.90
4757;DHT22;2392;52.578;13.426;2023-04-25T01:19:27;9.20;99.90
4757;DHT22;2392;52.578;13.426;2023-04-25T01:21:55;9.30;99.90
4757;DHT22;2392;52.578;13.426;2023-04-25T01:24:22;9.30;99.90
4757;DHT22;2392;52.578;13.426;2023-04-25T01:26:50;9.30;99.90
4757;DHT22;2392;52.578;13.426;2023-04-25T01:29:23;9.30;99.90
4757;DHT22;2392;52.578;13.426;2023-04-25T01:31:51;9.30;99.90
4757;DHT22;2392;52.578;13.426;2023-04-25T01:34:19;9.30;99.90
4757;DHT22;2392;52.578;13.426;2023-04-25T01:36:48;9.30;99.90
4757;DHT22;2392;52.578;13.426;2023-04-25T01:39:17;9.30;99.90
4757;DHT22;2392;52.578;13.426;2023-04-25T01:41:44;9.40;99.90
4757;DHT22;2392;52.578;13.426;2023-04-25T01:44:12;9.40;99.90
4757;DHT22;2392;52.578;13.426;2023-04-25T01:46:39;9.30;99.90
4757;DHT22;2392;52.578;13.426;2023-04-25T01:49:07;9.40;99.90
4757;DHT22;2392;52.578;13.426;2023-04-25T01:51:34;9.30;99.90
4757;DHT22;2392;52.578;13.426;2023-04-25T01:54:02;9.40;99.90
4757;DHT22;2392;52.578;13.426;2023-04-25T01:56:32;9.30;99.90
4757;DHT22;2392;52.578;13.426;2023-04-25T01:59:00;9.30;99.90
4757;DHT22;2392;52.578;13.426;2023-04-25T02:01:50;9.30;99.90
4757;DHT22;2392;52.578;13.426;2023-04-25T02:04:25;9.30;99.90
4757;DHT22;2392;52.578;13.426;2023-04-25T02:06:52;9.30;99.90
4757;DHT22;2392;52.578;13.426;2023-04-25T02:09:20;9.40;99.90
4757;DHT22;2392;52.578;13.426;2023-04-25T02:11:53;9.30;99.90
4757;DHT22;2392;52.578;13.426;2023-04-25T02:14:41;9.20;99.90
4757;DHT22;2392;52.578;13.426;2023-04-25T02:17:15;9.30;99.90
4757;DHT22;2392;52.578;13.426;2023-04-25T02:19:44;9.20;99.90
4757;DHT22;2392;52.578;13.426;2023-04-25T02:22:12;9.20;99.90
4757;DHT22;2392;52.578;13.426;2023-04-25T02:24:39;9.20;99.90
4757;DHT22;2392;52.578;13.426;2023-04-25T02:27:07;9.30;99.90
4757;DHT22;2392;52.578;13.426;2023-04-25T02:29:35;9.30;99.90
4757;DHT22;2392;52.578;13.426;2023-04-25T02:32:02;9.20;99.90
4757;DHT22;2392;52.578;13.426;2023-04-25T02:34:29;9.20;99.90
4757;DHT22;2392;52.578;13.426;2023-04-25T02:37:00;9.20;99.90
4757;DHT22;2392;52.578;13.426;2023-04-25T02:39:27;9.20;99.90
4757;DHT22;2392;52.578;13.426;2023-04-25T02:41:55;9.20;99.90
4757;DHT22;2392;52.578;13.426;2023-04-25T02:44:23;9.20;99.90
4757;DHT22;2392;52.578;13.426;2023-04-25T02:46:50;9.10;99.90
4757;DHT22;2392;52.578;13.426;2023-04-25T02:49:17;9.10;99.90
4757;DHT22;2392;52.578;13.426;2023-04-25T02:51:44;9.10;99.90
4757;DHT22;2392;52.578;13.426;2023-04-25T02:54:11;9.10;99.90
4757;DHT22;2392;52.578;13.426;2023-04-25T02:56:42;9.10;99.90
4757;DHT22;2392;52.578;13.426;2023-04-25T02:59:14;9.10;99.90
4757;DHT22;2392;52.578;13.426;2023-04-25T03:01:43;9.10;99.90
4757;DHT22;2392;52.578;13.426;2023-04-25T03:04:10;9.10;99.90
4757;DHT22;2392;52.578;13.426;2023-04-25T03:06:37;9.00;99.90
4757;DHT22;2392;52.578;13.426;2023-04-25T03:09:04;9.10;99.90
4757;DHT22;2392;52.578;13.426;2023-04-25T03:11:33;9.10;99.90
4757;DHT22;2392;52.578;13.426;2023-04-25T03:14:01;9.10;99.90
4757;DHT22;2392;52.578;13.426;2023-04-25T03:16:28;9.10;99.90
4757;DHT22;2392;52.578;13.426;2023-04-25T03:18:57;9.10;99.90
4757;DHT22;2392;52.578;13.426;2023-04-25T03:21:26;9.10;99.90
4757;DHT22;2392;52.578;13.426;2023-04-25T03:23:53;9.10;99.90
4757;DHT22;2392;52.578;13.426;2023-04-25T03:26:20;9.10;99.90
4757;DHT22;2392;52.578;13.426;2023-04-25T03:28:47;9.10;99.90
4757;DHT22;2392;52.578;13.426;2023-04-25T03:31:14;9.10;99.90
4757;DHT22;2392;52.578;13.426;2023-04-25T03:33:42;9.10;99.90
4757;DHT22;2392;52.578;13.426;2023-04-25T03:36:10;9.10;99.90
4757;DHT22;2392;52.578;13.426;2023-04-25T03:38:38;9.10;99.90
4757;DHT22;2392;52.578;13.426;2023-04-25T03:41:07;9.00;99.90
4757;DHT22;2392;52.578;13.426;2023-04-25T03:43:47;9.00;99.90
4757;DHT22;2392;52.578;13.426;2023-04-25T03:46:15;9.00;99.90
4757;DHT22;2392;52.578;13.426;2023-04-25T03:48:42;9.00;99.90
4757;DHT22;2392;52.578;13.426;2023-04-25T03:51:16;9.00;99.90
4757;DHT22;2392;52.578;13.426;2023-04-25T03:53:44;9.10;99.90
4757;DHT22;2392;52.578;13.426;2023-04-25T03:56:14;9.00;99.90
4757;DHT22;2392;52.578;13.426;2023-04-25T03:58:43;9.00;99.90
4757;DHT22;2392;52.578;13.426;2023-04-25T04:01:10;9.00;99.90
4757;DHT22;2392;52.578;13.426;2023-04-25T04:03:38;9.00;99.90
4757;DHT22;2392;52.578;13.426;2023-04-25T04:06:07;9.00;99.90
4757;DHT22;2392;52.578;13.426;2023-04-25T04:08:49;9.00;99.90
4757;DHT22;2392;52.578;13.426;2023-04-25T04:11:16;9.00;99.90
4757;DHT22;2392;52.578;13.426;2023-04-25T04:13:43;8.90;99.90
4757;DHT22;2392;52.578;13.426;2023-04-25T04:16:10;8.90;99.90
4757;DHT22;2392;52.578;13.426;2023-04-25T04:18:37;9.00;99.90
4757;DHT22;2392;52.578;13.426;2023-04-25T04:21:04;9.00;99.90
4757;DHT22;2392;52.578;13.426;2023-04-25T04:23:34;9.00;99.90
4757;DHT22;2392;52.578;13.426;2023-04-25T04:26:03;9.00;99.90
4757;DHT22;2392;52.578;13.426;2023-04-25T04:28:54;9.00;99.90
4757;DHT22;2392;52.578;13.426;2023-04-25T04:31:37;9.00;99.90
4757;DHT22;2392;52.578;13.426;2023-04-25T04:34:05;9.10;99.90
4757;DHT22;2392;52.578;13.426;2023-04-25T04:36:33;9.10;99.90
4757;DHT22;2392;52.578;13.426;2023-04-25T04:39:00;9.10;99.90
4757;DHT22;2392;52.578;13.426;2023-04-25T04:41:37;9.10;99.90
4757;DHT22;2392;52.578;13.426;2023-04-25T04:44:25;9.10;99.90
4757;DHT22;2392;52.578;13.426;2023-04-25T04:47:24;9.10;99.90
4757;DHT22;2392;52.578;13.426;2023-04-25T04:50:33;9.10;99.90
4757;DHT22;2392;52.578;13.426;2023-04-25T04:53:24;9.10;99.90
4757;DHT22;2392;52.578;13.426;2023-04-25T04:56:14;9.10;99.90
4757;DHT22;2392;52.578;13.426;2023-04-25T04:58:55;9.10;99.90
4757;DHT22;2392;52.578;13.426;2023-04-25T05:01:36;9.10;99.90
4757;DHT22;2392;52.578;13.426;2023-04-25T05:04:15;9.20;99.90
4757;DHT22;2392;52.578;13.426;2023-04-25T05:07:01;9.20;99.90
4757;DHT22;2392;52.578;13.426;2023-04-25T05:09:48;9.20;99.90
4757;DHT22;2392;52.578;13.426;2023-04-25T05:12:36;9.20;99.90
4757;DHT22;2392;52.578;13.426;2023-04-25T05:15:08;9.20;99.90
4757;DHT22;2392;52.578;13.426;2023-04-25T05:17:53;9.20;99.90
4757;DHT22;2392;52.578;13.426;2023-04-25T05:20:38;9.20;99.90
4757;DHT22;2392;52.578;13.426;2023-04-25T05:23:25;9.30;99.90
4757;DHT22;2392;52.578;13.426;2023-04-25T05:26:09;9.30;99.90
4757;DHT22;2392;52.578;13.426;2023-04-25T05:28:52;9.30;99.90
4757;DHT22;2392;52.578;13.426;2023-04-25T05:31:42;9.30;99.90
4757;DHT22;2392;52.578;13.426;2023-04-25T05:34:12;9.20;99.90
4757;DHT22;2392;52.578;13.426;2023-04-25T05:36:54;9.20;99.90
4757;DHT22;2392;52.578;13.426;2023-04-25T05:39:21;9.20;99.90
4757;DHT22;2392;52.578;13.426;2023-04-25T05:42:26;9.20;99.90
4757;DHT22;2392;52.578;13.426;2023-04-25T05:45:22;9.30;99.90
4757;DHT22;2392;52.578;13.426;2023-04-25T05:48:23;9.30;99.90
4757;DHT22;2392;52.578;13.426;2023-04-25T05:50:58;9.20;99.90
4757;DHT22;2392;52.578;13.426;2023-04-25T05:53:51;9.30;99.90
4757;DHT22;2392;52.578;13.426;2023-04-25T05:56:18;9.30;99.90
4757;DHT22;2392;52.578;13.426;2023-04-25T05:58:47;9.40;99.90
4757;DHT22;2392;52.578;13.426;2023-04-25T06:01:15;9.30;99.90
4757;DHT22;2392;52.578;13.426;2023-04-25T06:03:45;9.40;99.90
4757;DHT22;2392;52.578;13.426;2023-04-25T06:06:12;9.40;99.90
4757;DHT22;2392;52.578;13.426;2023-04-25T06:08:40;9.40;99.90
4757;DHT22;2392;52.578;13.426;2023-04-25T06:11:07;9.40;99.90
4757;DHT22;2392;52.578;13.426;2023-04-25T06:13:34;9.40;99.90
4757;DHT22;2392;52.578;13.426;2023-04-25T06:16:01;9.50;99.90
4757;DHT22;2392;52.578;13.426;2023-04-25T06:18:28;9.50;99.90
4757;DHT22;2392;52.578;13.426;2023-04-25T06:20:56;9.50;99.90
4757;DHT22;2392;52.578;13.426;2023-04-25T06:23:24;9.60;99.90
4757;DHT22;2392;52.578;13.426;2023-04-25T06:25:57;9.60;99.90
4757;DHT22;2392;52.578;13.426;2023-04-25T06:28:29;9.50;99.90
4757;DHT22;2392;52.578;13.426;2023-04-25T06:30:56;9.50;99.90
4757;DHT22;2392;52.578;13.426;2023-04-25T06:33:22;9.60;99.90
4757;DHT22;2392;52.578;13.426;2023-04-25T06:35:51;9.50;99.90
4757;DHT22;2392;52.578;13.426;2023-04-25T06:38:24;9.50;99.90
4757;DHT22;2392;52.578;13.426;2023-04-25T06:40:52;9.50;99.90
4757;DHT22;2392;52.578;13.426;2023-04-25T06:43:19;9.40;99.90
4757;DHT22;2392;52.578;13.426;2023-04-25T06:45:49;9.40;99.90
4757;DHT22;2392;52.578;13.426;2023-04-25T06:48:17;9.30;99.90
4757;DHT22;2392;52.578;13.426;2023-04-25T06:50:44;9.40;99.90
4757;DHT22;2392;52.578;13.426;2023-04-25T06:53:11;9.40;99.90
4757;DHT22;2392;52.578;13.426;2023-04-25T06:55:41;9.40;99.90
4757;DHT22;2392;52.578;13.426;2023-04-25T06:58:16;9.40;99.90
4757;DHT22;2392;52.578;13.426;2023-04-25T07:00:53;9.40;99.90
4757;DHT22;2392;52.578;13.426;2023-04-25T07:03:22;9.30;99.90
4757;DHT22;2392;52.578;13.426;2023-04-25T07:05:52;9.30;99.90
4757;DHT22;2392;52.578;13.426;2023-04-25T07:08:19;9.30;99.90
4757;DHT22;2392;52.578;13.426;2023-04-25T07:10:48;9.30;99.90
4757;DHT22;2392;52.578;13.426;2023-04-25T07:13:15;9.30;99.90
4757;DHT22;2392;52.578;13.426;2023-04-25T07:15:44;9.30;99.90
4757;DHT22;2392;52.578;13.426;2023-04-25T07:18:11;9.20;99.90
4757;DHT22;2392;52.578;13.426;2023-04-25T07:20:38;9.20;99.90
4757;DHT22;2392;52.578;13.426;2023-04-25T07:23:06;9.20;99.90
4757;DHT22;2392;52.578;13.426;2023-04-25T07:25:33;9.20;99.90
4757;DHT22;2392;52.578;13.426;2023-04-25T07:28:02;9.10;99.90
4757;DHT22;2392;52.578;13.426;2023-04-25T07:30:30;9.20;99.90
4757;DHT22;2392;52.578;13.426;2023-04-25T07:32:57;9.10;99.90
4757;DHT22;2392;52.578;13.426;2023-04-25T07:35:24;9.20;99.90
4757;DHT22;2392;52.578;13.426;2023-04-25T07:37:51;9.20;99.90
4757;DHT22;2392;52.578;13.426;2023-04-25T07:40:19;9.20;99.90
4757;DHT22;2392;52.578;13.426;2023-04-25T07:42:53;9.20;99.90
4757;DHT22;2392;52.578;13.426;2023-04-25T07:45:42;9.20;99.90
4757;DHT22;2392;52.578;13.426;2023-04-25T07:48:09;9.20;99.90
4757;DHT22;2392;52.578;13.426;2023-04-25T07:50:38;9.20;99.90
4757;DHT22;2392;52.578;13.426;2023-04-25T07:53:05;9.20;99.90
4757;DHT22;2392;52.578;13.426;2023-04-25T07:55:40;9.20;99.90
4757;DHT22;2392;52.578;13.426;2023-04-25T07:58:13;9.20;99.90
4757;DHT22;2392;52.578;13.426;2023-04-25T08:00:44;9.40;99.90
4757;DHT22;2392;52.578;13.426;2023-04-25T08:03:31;9.50;99.90
4757;DHT22;2392;52.578;13.426;2023-04-25T08:05:59;9.60;99.90
4757;DHT22;2392;52.578;13.426;2023-04-25T08:08:30;9.60;99.90
4757;DHT22;2392;52.578;13.426;2023-04-25T08:10:58;9.70;99.90
4757;DHT22;2392;52.578;13.426;2023-04-25T08:13:26;9.90;99.90
4757;DHT22;2392;52.578;13.426;2023-04-25T08:15:54;10.00;99.90
4757;DHT22;2392;52.578;13.426;2023-04-25T08:18:21;10.20;99.90
4757;DHT22;2392;52.578;13.426;2023-04-25T08:20:49;10.30;99.90
4757;DHT22;2392;52.578;13.426;2023-04-25T08:23:17;10.30;99.90
4757;DHT22;2392;52.578;13.426;2023-04-25T08:25:52;10.20;99.90
4757;DHT22;2392;52.578;13.426;2023-04-25T08:28:23;10.10;99.90
4757;DHT22;2392;52.578;13.426;2023-04-25T08:30:51;10.00;99.90
4757;DHT22;2392;52.578;13.426;2023-04-25T08:33:20;10.00;99.90
4757;DHT22;2392;52.578;13.426;2023-04-25T08:35:47;10.10;99.90
4757;DHT22;2392;52.578;13.426;2023-04-25T08:38:15;10.20;99.90
4757;DHT22;2392;52.578;13.426;2023-04-25T08:40:43;10.20;99.90
4757;DHT22;2392;52.578;13.426;2023-04-25T08:43:15;10.20;99.90
4757;DHT22;2392;52.578;13.426;2023-04-25T08:45:43;10.20;99.90
4757;DHT22;2392;52.578;13.426;2023-04-25T08:48:18;10.20;99.90
4757;DHT22;2392;52.578;13.426;2023-04-25T08:50:50;10.20;99.90
4757;DHT22;2392;52.578;13.426;2023-04-25T08:53:21;10.30;99.90
4757;DHT22;2392;52.578;13.426;2023-04-25T08:55:50;10.30;99.90
4757;DHT22;2392;52.578;13.426;2023-04-25T08:58:18;10.60;99.90
4757;DHT22;2392;52.578;13.426;2023-04-25T09:00:46;10.80;99.90
4757;DHT22;2392;52.578;13.426;2023-04-25T09:03:14;11.00;99.90
4757;DHT22;2392;52.578;13.426;2023-04-25T09:05:42;11.10;99.90
4757;DHT22;2392;52.578;13.426;2023-04-25T09:08:10;11.20;99.90
4757;DHT22;2392;52.578;13.426;2023-04-25T09:10:38;11.30;99.90
4757;DHT22;2392;52.578;13.426;2023-04-25T09:13:06;11.20;99.90
4757;DHT22;2392;52.578;13.426;2023-04-25T09:15:53;11.20;99.90
4757;DHT22;2392;52.578;13.426;2023-04-25T09:18:47;11.20;99.90
4757;DHT22;2392;52.578;13.426;2023-04-25T09:21:16;11.30;99.90
4757;DHT22;2392;52.578;13.426;2023-04-25T09:23:48;11.30;99.90
4757;DHT22;2392;52.578;13.426;2023-04-25T09:26:17;11.40;99.90
4757;DHT22;2392;52.578;13.426;2023-04-25T09:28:46;11.20;99.90
4757;DHT22;2392;52.578;13.426;2023-04-25T09:31:21;11.10;99.90
4757;DHT22;2392;52.578;13.426;2023-04-25T09:33:50;11.20;99.90
4757;DHT22;2392;52.578;13.426;2023-04-25T09:36:27;11.10;99.90
4757;DHT22;2392;52.578;13.426;2023-04-25T09:39:02;11.30;99.90
4757;DHT22;2392;52.578;13.426;2023-04-25T09:41:37;11.50;99.90
4757;DHT22;2392;52.578;13.426;2023-04-25T09:44:12;11.70;99.90
4757;DHT22;2392;52.578;13.426;2023-04-25T09:46:53;11.70;99.90
4757;DHT22;2392;52.578;13.426;2023-04-25T09:49:25;11.70;99.90
4757;DHT22;2392;52.578;13.426;2023-04-25T09:52:03;11.60;99.90
4757;DHT22;2392;52.578;13.426;2023-04-25T09:54:44;11.70;99.90
4757;DHT22;2392;52.578;13.426;2023-04-25T09:57:19;11.60;99.60
4757;DHT22;2392;52.578;13.426;2023-04-25T09:59:49;11.60;99.30
4757;DHT22;2392;52.578;13.426;2023-04-25T10:02:18;11.60;99.30
4757;DHT22;2392;52.578;13.426;2023-04-25T10:04:48;11.80;98.40
4757;DHT22;2392;52.578;13.426;2023-04-25T10:07:29;12.10;98.10
4757;DHT22;2392;52.578;13.426;2023-04-25T10:10:00;12.40;98.40
4757;DHT22;2392;52.578;13.426;2023-04-25T10:12:28;12.40;96.90
4757;DHT22;2392;52.578;13.426;2023-04-25T10:14:57;12.50;96.70
4757;DHT22;2392;52.578;13.426;2023-04-25T10:17:26;13.30;96.10
4757;DHT22;2392;52.578;13.426;2023-04-25T10:19:54;13.70;94.90
4757;DHT22;2392;52.578;13.426;2023-04-25T10:22:29;13.50;94.00
4757;DHT22;2392;52.578;13.426;2023-04-25T10:24:56;13.30;94.20
4757;DHT22;2392;52.578;13.426;2023-04-25T10:27:27;13.00;94.50
4757;DHT22;2392;52.578;13.426;2023-04-25T10:30:00;12.80;94.70
4757;DHT22;2392;52.578;13.426;2023-04-25T10:32:30;12.60;94.50
4757;DHT22;2392;52.578;13.426;2023-04-25T10:35:04;12.40;94.50
4757;DHT22;2392;52.578;13.426;2023-04-25T10:37:36;12.20;94.70
4757;DHT22;2392;52.578;13.426;2023-04-25T10:40:08;11.90;95.00
4757;DHT22;2392;52.578;13.426;2023-04-25T10:42:37;11.80;95.00
4757;DHT22;2392;52.578;13.426;2023-04-25T10:45:05;11.70;95.50
4757;DHT22;2392;52.578;13.426;2023-04-25T10:47:44;11.70;95.20
4757;DHT22;2392;52.578;13.426;2023-04-25T10:50:15;11.90;94.60
4757;DHT22;2392;52.578;13.426;2023-04-25T10:52:42;11.90;94.40
4757;DHT22;2392;52.578;13.426;2023-04-25T10:55:10;11.90;94.80
4757;DHT22;2392;52.578;13.426;2023-04-25T10:57:40;12.00;93.20
4757;DHT22;2392;52.578;13.426;2023-04-25T11:00:18;12.00;92.80
4757;DHT22;2392;52.578;13.426;2023-04-25T11:02:47;12.00;92.60
4757;DHT22;2392;52.578;13.426;2023-04-25T11:05:23;12.40;92.20
4757;DHT22;2392;52.578;13.426;2023-04-25T11:07:55;12.70;92.00
4757;DHT22;2392;52.578;13.426;2023-04-25T11:10:25;13.00;92.10
4757;DHT22;2392;52.578;13.426;2023-04-25T11:12:55;12.90;91.70
4757;DHT22;2392;52.578;13.426;2023-04-25T11:15:23;12.60;91.70
4757;DHT22;2392;52.578;13.426;2023-04-25T11:17:51;12.30;92.10
4757;DHT22;2392;52.578;13.426;2023-04-25T11:20:18;11.90;92.80
4757;DHT22;2392;52.578;13.426;2023-04-25T11:22:46;11.50;92.70
4757;DHT22;2392;52.578;13.426;2023-04-25T11:25:15;11.30;93.30
4757;DHT22;2392;52.578;13.426;2023-04-25T11:27:52;11.10;92.80
4757;DHT22;2392;52.578;13.426;2023-04-25T11:30:21;11.00;93.40
4757;DHT22;2392;52.578;13.426;2023-04-25T11:32:49;11.00;92.50
4757;DHT22;2392;52.578;13.426;2023-04-25T11:35:17;11.00;93.00
4757;DHT22;2392;52.578;13.426;2023-04-25T11:37:45;11.10;93.00
4757;DHT22;2392;52.578;13.426;2023-04-25T11:40:12;11.20;92.90
4757;DHT22;2392;52.578;13.426;2023-04-25T11:42:53;11.30;91.30
4757;DHT22;2392;52.578;13.426;2023-04-25T11:45:23;11.40;91.30
4757;DHT22;2392;52.578;13.426;2023-04-25T11:47:50;11.50;91.20
4757;DHT22;2392;52.578;13.426;2023-04-25T11:50:18;11.60;91.40
4757;DHT22;2392;52.578;13.426;2023-04-25T11:52:49;11.70;91.30
4757;DHT22;2392;52.578;13.426;2023-04-25T11:55:18;11.80;90.90
4757;DHT22;2392;52.578;13.426;2023-04-25T11:57:47;11.70;91.20
4757;DHT22;2392;52.578;13.426;2023-04-25T12:00:17;11.60;91.30
4757;DHT22;2392;52.578;13.426;2023-04-25T12:02:47;11.60;91.40
4757;DHT22;2392;52.578;13.426;2023-04-25T12:05:15;11.60;92.00
4757;DHT22;2392;52.578;13.426;2023-04-25T12:07:42;11.70;92.30
4757;DHT22;2392;52.578;13.426;2023-04-25T12:10:11;11.80;92.50
4757;DHT22;2392;52.578;13.426;2023-04-25T12:12:42;12.00;91.80
4757;DHT22;2392;52.578;13.426;2023-04-25T12:15:10;12.10;90.90
4757;DHT22;2392;52.578;13.426;2023-04-25T12:17:41;12.00;91.30
4757;DHT22;2392;52.578;13.426;2023-04-25T12:20:13;12.00;91.70
4757;DHT22;2392;52.578;13.426;2023-04-25T12:22:41;11.80;91.50
4757;DHT22;2392;52.578;13.426;2023-04-25T12:25:13;11.80;91.80
4757;DHT22;2392;52.578;13.426;2023-04-25T12:27:40;11.80;90.90
4757;DHT22;2392;52.578;13.426;2023-04-25T12:30:10;11.70;91.10
4757;DHT22;2392;52.578;13.426;2023-04-25T12:32:37;11.70;90.60
4757;DHT22;2392;52.578;13.426;2023-04-25T12:35:05;11.90;90.50
4757;DHT22;2392;52.578;13.426;2023-04-25T12:37:34;12.20;91.00
4757;DHT22;2392;52.578;13.426;2023-04-25T12:40:01;12.40;90.50
4757;DHT22;2392;52.578;13.426;2023-04-25T12:42:30;12.50;90.20
4757;DHT22;2392;52.578;13.426;2023-04-25T12:44:56;12.30;89.60
4757;DHT22;2392;52.578;13.426;2023-04-25T12:47:23;12.20;90.30
4757;DHT22;2392;52.578;13.426;2023-04-25T12:49:50;12.10;90.40
4757;DHT22;2392;52.578;13.426;2023-04-25T12:52:17;12.10;90.20
4757;DHT22;2392;52.578;13.426;2023-04-25T12:54:46;12.00;90.30
4757;DHT22;2392;52.578;13.426;2023-04-25T12:57:12;11.90;90.50
4757;DHT22;2392;52.578;13.426;2023-04-25T12:59:39;11.90;90.50
4757;DHT22;2392;52.578;13.426;2023-04-25T13:02:06;12.00;90.60
4757;DHT22;2392;52.578;13.426;2023-04-25T13:04:33;12.00;89.70
4757;DHT22;2392;52.578;13.426;2023-04-25T13:07:00;12.10;90.20
4757;DHT22;2392;52.578;13.426;2023-04-25T13:09:27;12.40;89.90
4757;DHT22;2392;52.578;13.426;2023-04-25T13:11:55;12.90;90.50
4757;DHT22;2392;52.578;13.426;2023-04-25T13:14:23;13.70;89.60
4757;DHT22;2392;52.578;13.426;2023-04-25T13:16:50;14.10;86.00
4757;DHT22;2392;52.578;13.426;2023-04-25T13:19:17;14.30;86.20
4757;DHT22;2392;52.578;13.426;2023-04-25T13:21:44;14.40;84.40
4757;DHT22;2392;52.578;13.426;2023-04-25T13:24:11;14.30;84.30
4757;DHT22;2392;52.578;13.426;2023-04-25T13:26:38;14.00;82.70
4757;DHT22;2392;52.578;13.426;2023-04-25T13:29:06;13.50;83.00
4757;DHT22;2392;52.578;13.426;2023-04-25T13:31:33;13.10;83.60
4757;DHT22;2392;52.578;13.426;2023-04-25T13:34:00;12.60;84.30
4757;DHT22;2392;52.578;13.426;2023-04-25T13:36:27;12.20;85.50
4757;DHT22;2392;52.578;13.426;2023-04-25T13:38:54;11.90;86.70
4757;DHT22;2392;52.578;13.426;2023-04-25T13:41:21;11.70;88.30
4757;DHT22;2392;52.578;13.426;2023-04-25T13:43:48;11.50;89.70
4757;DHT22;2392;52.578;13.426;2023-04-25T13:46:16;11.40;90.40
4757;DHT22;2392;52.578;13.426;2023-04-25T13:48:44;11.30;90.70
4757;DHT22;2392;52.578;13.426;2023-04-25T13:51:15;11.20;91.00
4757;DHT22;2392;52.578;13.426;2023-04-25T13:53:43;11.10;91.00
4757;DHT22;2392;52.578;13.426;2023-04-25T13:56:11;11.00;91.30
4757;DHT22;2392;52.578;13.426;2023-04-25T13:58:38;11.00;91.70
4757;DHT22;2392;52.578;13.426;2023-04-25T14:01:05;11.00;91.70
4757;DHT22;2392;52.578;13.426;2023-04-25T14:03:34;11.20;91.60
4757;DHT22;2392;52.578;13.426;2023-04-25T14:06:01;11.50;91.80
4757;DHT22;2392;52.578;13.426;2023-04-25T14:08:28;11.70;92.10
4757;DHT22;2392;52.578;13.426;2023-04-25T14:10:55;11.90;91.80
4757;DHT22;2392;52.578;13.426;2023-04-25T14:13:22;12.10;91.40
4757;DHT22;2392;52.578;13.426;2023-04-25T14:15:50;12.10;90.90
4757;DHT22;2392;52.578;13.426;2023-04-25T14:18:18;12.00;90.60
4757;DHT22;2392;52.578;13.426;2023-04-25T14:20:46;12.00;90.90
4757;DHT22;2392;52.578;13.426;2023-04-25T14:23:13;11.80;90.90
4757;DHT22;2392;52.578;13.426;2023-04-25T14:25:40;11.60;91.10
4757;DHT22;2392;52.578;13.426;2023-04-25T14:28:09;11.40;91.40
4757;DHT22;2392;52.578;13.426;2023-04-25T14:30:36;11.30;91.60
4757;DHT22;2392;52.578;13.426;2023-04-25T14:33:06;11.40;91.90
4757;DHT22;2392;52.578;13.426;2023-04-25T14:35:33;11.50;91.40
4757;DHT22;2392;52.578;13.426;2023-04-25T14:38:02;11.50;91.30
4757;DHT22;2392;52.578;13.426;2023-04-25T14:40:31;11.50;91.40
4757;DHT22;2392;52.578;13.426;2023-04-25T14:42:58;11.50;91.50
4757;DHT22;2392;52.578;13.426;2023-04-25T14:45:25;11.30;91.60
4757;DHT22;2392;52.578;13.426;2023-04-25T14:47:51;11.40;91.90
4757;DHT22;2392;52.578;13.426;2023-04-25T14:50:18;11.40;92.50
4757;DHT22;2392;52.578;13.426;2023-04-25T14:52:45;11.50;92.50
4757;DHT22;2392;52.578;13.426;2023-04-25T14:55:14;11.50;92.40
4757;DHT22;2392;52.578;13.426;2023-04-25T14:57:41;11.30;92.50
4757;DHT22;2392;52.578;13.426;2023-04-25T15:00:09;11.30;92.70
4757;DHT22;2392;52.578;13.426;2023-04-25T15:02:39;11.20;92.70
4757;DHT22;2392;52.578;13.426;2023-04-25T15:05:06;11.10;92.90
4757;DHT22;2392;52.578;13.426;2023-04-25T15:07:34;11.00;92.70
4757;DHT22;2392;52.578;13.426;2023-04-25T15:10:02;10.80;92.70
4757;DHT22;2392;52.578;13.426;2023-04-25T15:12:31;10.60;92.80
4757;DHT22;2392;52.578;13.426;2023-04-25T15:14:58;10.50;93.10
4757;DHT22;2392;52.578;13.426;2023-04-25T15:17:25;10.40;93.40
4757;DHT22;2392;52.578;13.426;2023-04-25T15:19:56;10.40;93.50
4757;DHT22;2392;52.578;13.426;2023-04-25T15:22:23;10.40;93.70
4757;DHT22;2392;52.578;13.426;2023-04-25T15:24:50;10.50;92.10
4757;DHT22;2392;52.578;13.426;2023-04-25T15:27:17;10.60;92.60
4757;DHT22;2392;52.578;13.426;2023-04-25T15:29:45;10.60;93.00
4757;DHT22;2392;52.578;13.426;2023-04-25T15:32:12;10.70;92.80
4757;DHT22;2392;52.578;13.426;2023-04-25T15:34:39;10.90;92.30
4757;DHT22;2392;52.578;13.426;2023-04-25T15:37:06;11.00;91.90
4757;DHT22;2392;52.578;13.426;2023-04-25T15:39:33;11.10;92.10
4757;DHT22;2392;52.578;13.426;2023-04-25T15:42:00;11.20;91.40
4757;DHT22;2392;52.578;13.426;2023-04-25T15:44:28;11.20;91.40
4757;DHT22;2392;52.578;13.426;2023-04-25T15:46:56;11.30;91.20
4757;DHT22;2392;52.578;13.426;2023-04-25T15:49:29;11.30;91.30
4757;DHT22;2392;52.578;13.426;2023-04-25T15:52:05;11.30;91.30
4757;DHT22;2392;52.578;13.426;2023-04-25T15:54:32;11.30;91.50
4757;DHT22;2392;52.578;13.426;2023-04-25T15:56:59;11.20;91.60
4757;DHT22;2392;52.578;13.426;2023-04-25T15:59:26;11.00;91.90
4757;DHT22;2392;52.578;13.426;2023-04-25T16:01:53;10.90;92.00
4757;DHT22;2392;52.578;13.426;2023-04-25T16:04:24;10.90;92.20
4757;DHT22;2392;52.578;13.426;2023-04-25T16:06:52;10.90;92.70
4757;DHT22;2392;52.578;13.426;2023-04-25T16:09:19;10.90;92.50
4757;DHT22;2392;52.578;13.426;2023-04-25T16:11:47;10.90;92.40
4757;DHT22;2392;52.578;13.426;2023-04-25T16:14:15;10.90;92.20